sensor_id;sensor_type;location;lat;lon;timestamp;P1;durP1;ratioP1;P2;durP2;ratioP2
73632;SDS011;61927;50.080;14.418;2023-02-03T00:00:24;10.30;;;2.72;;
73632;SDS011;61927;50.080;14.418;2023-02-03T00:03:12;4.35;;;2.70;;
73632;SDS011;61927;50.080;14.418;2023-02-03T00:05:38;6.18;;;3.22;;
73632;SDS011;61927;50.080;14.418;2023-02-03T00:08:05;8.35;;;3.40;;
73632;SDS011;61927;50.080;14.418;2023-02-03T00:10:33;7.47;;;2.80;;
73632;SDS011;61927;50.080;14.418;2023-02-03T00:13:01;10.13;;;3.70;;
73632;SDS011;61927;50.080;14.418;2023-02-03T00:15:27;6.85;;;3.13;;
73632;SDS011;61927;50.080;14.418;2023-02-03T00:17:52;10.48;;;3.28;;
73632;SDS011;61927;50.080;14.418;2023-02-03T00:20:18;9.80;;;3.35;;
73632;SDS011;61927;50.080;14.418;2023-02-03T00:22:44;5.95;;;3.30;;
73632;SDS011;61927;50.080;14.418;2023-02-03T00:25:10;6.25;;;3.22;;
73632;SDS011;61927;50.080;14.418;2023-02-03T00:27:36;8.02;;;3.75;;
73632;SDS011;61927;50.080;14.418;2023-02-03T00:30:02;11.05;;;3.85;;
73632;SDS011;61927;50.080;14.418;2023-02-03T00:32:28;11.35;;;3.70;;
73632;SDS011;61927;50.080;14.418;2023-02-03T00:34:54;15.18;;;3.92;;
73632;SDS011;61927;50.080;14.418;2023-02-03T00:37:19;11.27;;;3.90;;
73632;SDS011;61927;50.080;14.418;2023-02-03T00:39:47;8.70;;;3.50;;
73632;SDS011;61927;50.080;14.418;2023-02-03T00:42:14;10.50;;;3.30;;
73632;SDS011;61927;50.080;14.418;2023-02-03T00:44:40;8.30;;;3.28;;
73632;SDS011;61927;50.080;14.418;2023-02-03T00:47:05;6.75;;;2.95;;
73632;SDS011;61927;50.080;14.418;2023-02-03T00:49:32;6.00;;;3.47;;
73632;SDS011;61927;50.080;14.418;2023-02-03T00:51:58;11.98;;;3.42;;
73632;SDS011;61927;50.080;14.418;2023-02-03T00:54:23;11.20;;;3.47;;
73632;SDS011;61927;50.080;14.418;2023-02-03T00:56:49;10.57;;;3.20;;
73632;SDS011;61927;50.080;14.418;2023-02-03T00:59:15;12.32;;;4.03;;
73632;SDS011;61927;50.080;14.418;2023-02-03T01:01:40;7.80;;;4.50;;
73632;SDS011;61927;50.080;14.418;2023-02-03T01:04:06;10.73;;;3.88;;
73632;SDS011;61927;50.080;14.418;2023-02-03T01:06:32;14.13;;;3.50;;
73632;SDS011;61927;50.080;14.418;2023-02-03T01:08:58;4.05;;;2.97;;
73632;SDS011;61927;50.080;14.418;2023-02-03T01:11:26;6.10;;;3.35;;
73632;SDS011;61927;50.080;14.418;2023-02-03T01:13:53;10.55;;;3.22;;
73632;SDS011;61927;50.080;14.418;2023-02-03T01:16:20;6.47;;;3.28;;
73632;SDS011;61927;50.080;14.418;2023-02-03T01:18:48;10.52;;;3.15;;
73632;SDS011;61927;50.080;14.418;2023-02-03T01:21:15;7.00;;;3.55;;
73632;SDS011;61927;50.080;14.418;2023-02-03T01:23:43;7.25;;;3.30;;
73632;SDS011;61927;50.080;14.418;2023-02-03T01:26:10;8.75;;;3.42;;
73632;SDS011;61927;50.080;14.418;2023-02-03T01:28:38;8.23;;;3.20;;
73632;SDS011;61927;50.080;14.418;2023-02-03T01:31:38;11.30;;;3.22;;
73632;SDS011;61927;50.080;14.418;2023-02-03T01:33:59;7.47;;;3.20;;
73632;SDS011;61927;50.080;14.418;2023-02-03T01:36:26;8.80;;;3.38;;
73632;SDS011;61927;50.080;14.418;2023-02-03T01:38:53;7.55;;;3.38;;
73632;SDS011;61927;50.080;14.418;2023-02-03T01:41:21;6.18;;;3.38;;
73632;SDS011;61927;50.080;14.418;2023-02-03T01:43:50;11.20;;;2.97;;
73632;SDS011;61927;50.080;14.418;2023-02-03T01:48:48;5.93;;;3.15;;
73632;SDS011;61927;50.080;14.418;2023-02-03T01:51:15;8.10;;;3.17;;
73632;SDS011;61927;50.080;14.418;2023-02-03T01:53:41;6.15;;;3.28;;
73632;SDS011;61927;50.080;14.418;2023-02-03T01:56:07;4.13;;;3.00;;
73632;SDS011;61927;50.080;14.418;2023-02-03T01:58:35;6.38;;;3.13;;
73632;SDS011;61927;50.080;14.418;2023-02-03T02:01:03;5.90;;;3.20;;
73632;SDS011;61927;50.080;14.418;2023-02-03T02:03:40;5.78;;;2.95;;
73632;SDS011;61927;50.080;14.418;2023-02-03T02:06:10;4.43;;;2.90;;
73632;SDS011;61927;50.080;14.418;2023-02-03T02:08:39;10.63;;;3.60;;
73632;SDS011;61927;50.080;14.418;2023-02-03T02:11:06;8.23;;;3.53;;
73632;SDS011;61927;50.080;14.418;2023-02-03T02:13:33;4.22;;;3.40;;
73632;SDS011;61927;50.080;14.418;2023-02-03T02:16:11;8.48;;;3.60;;
73632;SDS011;61927;50.080;14.418;2023-02-03T02:30:03;8.35;;;4.60;;
73632;SDS011;61927;50.080;14.418;2023-02-03T02:35:17;5.53;;;3.70;;
73632;SDS011;61927;50.080;14.418;2023-02-03T02:43:36;5.18;;;3.30;;
73632;SDS011;61927;50.080;14.418;2023-02-03T02:46:05;5.30;;;3.92;;
73632;SDS011;61927;50.080;14.418;2023-02-03T02:48:58;4.85;;;3.60;;
73632;SDS011;61927;50.080;14.418;2023-02-03T02:51:45;5.30;;;3.67;;
73632;SDS011;61927;50.080;14.418;2023-02-03T02:54:14;4.30;;;3.50;;
73632;SDS011;61927;50.080;14.418;2023-02-03T02:56:47;5.80;;;3.65;;
73632;SDS011;61927;50.080;14.418;2023-02-03T02:59:15;4.78;;;3.67;;
73632;SDS011;61927;50.080;14.418;2023-02-03T03:01:41;4.00;;;3.38;;
73632;SDS011;61927;50.080;14.418;2023-02-03T03:04:06;5.53;;;3.90;;
73632;SDS011;61927;50.080;14.418;2023-02-03T03:09:11;6.50;;;3.20;;
73632;SDS011;61927;50.080;14.418;2023-02-03T03:11:46;5.88;;;3.45;;
73632;SDS011;61927;50.080;14.418;2023-02-03T03:14:15;5.15;;;3.03;;
73632;SDS011;61927;50.080;14.418;2023-02-03T03:16:46;3.53;;;3.03;;
73632;SDS011;61927;50.080;14.418;2023-02-03T03:19:21;5.25;;;3.05;;
73632;SDS011;61927;50.080;14.418;2023-02-03T03:21:51;3.42;;;2.92;;
73632;SDS011;61927;50.080;14.418;2023-02-03T03:24:28;4.75;;;3.15;;
73632;SDS011;61927;50.080;14.418;2023-02-03T03:29:26;4.07;;;2.92;;
73632;SDS011;61927;50.080;14.418;2023-02-03T03:31:56;3.42;;;2.88;;
73632;SDS011;61927;50.080;14.418;2023-02-03T03:34:22;4.25;;;2.60;;
73632;SDS011;61927;50.080;14.418;2023-02-03T03:42:27;3.47;;;2.58;;
73632;SDS011;61927;50.080;14.418;2023-02-03T03:45:00;4.30;;;3.05;;
73632;SDS011;61927;50.080;14.418;2023-02-03T03:47:35;4.35;;;2.67;;
73632;SDS011;61927;50.080;14.418;2023-02-03T03:50:04;3.50;;;2.85;;
73632;SDS011;61927;50.080;14.418;2023-02-03T03:52:34;4.65;;;2.80;;
73632;SDS011;61927;50.080;14.418;2023-02-03T03:55:02;2.55;;;2.35;;
73632;SDS011;61927;50.080;14.418;2023-02-03T03:57:34;4.80;;;3.20;;
73632;SDS011;61927;50.080;14.418;2023-02-03T04:00:05;3.95;;;2.90;;
73632;SDS011;61927;50.080;14.418;2023-02-03T04:02:34;4.18;;;3.22;;
73632;SDS011;61927;50.080;14.418;2023-02-03T04:05:03;4.20;;;2.40;;
73632;SDS011;61927;50.080;14.418;2023-02-03T04:07:43;4.90;;;2.97;;
73632;SDS011;61927;50.080;14.418;2023-02-03T04:10:32;2.92;;;2.67;;
73632;SDS011;61927;50.080;14.418;2023-02-03T04:13:01;3.15;;;2.70;;
73632;SDS011;61927;50.080;14.418;2023-02-03T04:15:27;3.97;;;2.47;;
73632;SDS011;61927;50.080;14.418;2023-02-03T04:17:53;3.05;;;2.35;;
73632;SDS011;61927;50.080;14.418;2023-02-03T04:20:21;4.18;;;2.10;;
73632;SDS011;61927;50.080;14.418;2023-02-03T04:22:47;2.75;;;2.17;;
73632;SDS011;61927;50.080;14.418;2023-02-03T04:25:12;4.38;;;2.00;;
73632;SDS011;61927;50.080;14.418;2023-02-03T04:27:38;2.95;;;1.92;;
73632;SDS011;61927;50.080;14.418;2023-02-03T04:30:04;3.47;;;2.20;;
73632;SDS011;61927;50.080;14.418;2023-02-03T04:32:30;2.10;;;2.00;;
73632;SDS011;61927;50.080;14.418;2023-02-03T04:34:57;6.57;;;2.33;;
73632;SDS011;61927;50.080;14.418;2023-02-03T04:37:23;4.88;;;2.13;;
73632;SDS011;61927;50.080;14.418;2023-02-03T04:39:51;8.95;;;2.72;;
73632;SDS011;61927;50.080;14.418;2023-02-03T04:42:20;3.85;;;2.53;;
73632;SDS011;61927;50.080;14.418;2023-02-03T04:44:46;6.25;;;2.55;;
73632;SDS011;61927;50.080;14.418;2023-02-03T04:47:11;3.13;;;2.30;;
73632;SDS011;61927;50.080;14.418;2023-02-03T04:49:37;2.40;;;2.20;;
73632;SDS011;61927;50.080;14.418;2023-02-03T04:52:03;3.88;;;2.50;;
73632;SDS011;61927;50.080;14.418;2023-02-03T04:54:29;2.40;;;2.20;;
73632;SDS011;61927;50.080;14.418;2023-02-03T04:56:55;3.17;;;2.13;;
73632;SDS011;61927;50.080;14.418;2023-02-03T04:59:20;2.25;;;1.95;;
73632;SDS011;61927;50.080;14.418;2023-02-03T05:01:46;1.88;;;1.70;;
73632;SDS011;61927;50.080;14.418;2023-02-03T05:04:11;4.28;;;2.00;;
73632;SDS011;61927;50.080;14.418;2023-02-03T05:06:37;2.42;;;1.90;;
73632;SDS011;61927;50.080;14.418;2023-02-03T05:09:03;2.85;;;1.80;;
73632;SDS011;61927;50.080;14.418;2023-02-03T05:11:28;5.95;;;2.17;;
73632;SDS011;61927;50.080;14.418;2023-02-03T05:13:54;2.30;;;1.80;;
73632;SDS011;61927;50.080;14.418;2023-02-03T05:16:20;2.17;;;1.98;;
73632;SDS011;61927;50.080;14.418;2023-02-03T05:18:46;4.45;;;1.73;;
73632;SDS011;61927;50.080;14.418;2023-02-03T05:21:11;3.00;;;1.83;;
73632;SDS011;61927;50.080;14.418;2023-02-03T05:23:37;1.45;;;1.40;;
73632;SDS011;61927;50.080;14.418;2023-02-03T05:26:03;2.38;;;1.63;;
73632;SDS011;61927;50.080;14.418;2023-02-03T05:28:29;7.95;;;1.80;;
73632;SDS011;61927;50.080;14.418;2023-02-03T05:30:58;1.60;;;1.50;;
73632;SDS011;61927;50.080;14.418;2023-02-03T05:33:25;1.83;;;1.60;;
73632;SDS011;61927;50.080;14.418;2023-02-03T05:35:51;1.92;;;1.30;;
73632;SDS011;61927;50.080;14.418;2023-02-03T05:38:17;1.85;;;1.15;;
73632;SDS011;61927;50.080;14.418;2023-02-03T05:40:42;1.77;;;1.35;;
73632;SDS011;61927;50.080;14.418;2023-02-03T05:43:29;1.35;;;1.10;;
73632;SDS011;61927;50.080;14.418;2023-02-03T05:45:58;1.52;;;1.20;;
73632;SDS011;61927;50.080;14.418;2023-02-03T05:48:25;5.57;;;1.00;;
73632;SDS011;61927;50.080;14.418;2023-02-03T05:50:50;1.95;;;1.13;;
73632;SDS011;61927;50.080;14.418;2023-02-03T05:53:16;1.92;;;1.10;;
73632;SDS011;61927;50.080;14.418;2023-02-03T05:55:42;1.75;;;1.33;;
73632;SDS011;61927;50.080;14.418;2023-02-03T05:58:07;1.23;;;1.00;;
73632;SDS011;61927;50.080;14.418;2023-02-03T06:00:33;1.10;;;1.10;;
73632;SDS011;61927;50.080;14.418;2023-02-03T06:02:59;1.30;;;1.30;;
73632;SDS011;61927;50.080;14.418;2023-02-03T06:05:27;1.00;;;1.00;;
73632;SDS011;61927;50.080;14.418;2023-02-03T06:07:53;1.00;;;1.00;;
73632;SDS011;61927;50.080;14.418;2023-02-03T06:10:19;1.30;;;1.20;;
73632;SDS011;61927;50.080;14.418;2023-02-03T06:12:46;1.20;;;1.20;;
73632;SDS011;61927;50.080;14.418;2023-02-03T06:15:12;1.30;;;1.20;;
73632;SDS011;61927;50.080;14.418;2023-02-03T06:17:37;3.00;;;1.52;;
73632;SDS011;61927;50.080;14.418;2023-02-03T06:20:07;1.85;;;1.70;;
73632;SDS011;61927;50.080;14.418;2023-02-03T06:22:33;1.55;;;1.45;;
73632;SDS011;61927;50.080;14.418;2023-02-03T06:25:00;1.15;;;1.15;;
73632;SDS011;61927;50.080;14.418;2023-02-03T06:27:25;1.33;;;1.23;;
73632;SDS011;61927;50.080;14.418;2023-02-03T06:29:52;1.00;;;1.00;;
73632;SDS011;61927;50.080;14.418;2023-02-03T06:32:17;6.47;;;1.30;;
73632;SDS011;61927;50.080;14.418;2023-02-03T06:34:43;1.95;;;1.08;;
73632;SDS011;61927;50.080;14.418;2023-02-03T06:37:08;1.88;;;1.20;;
73632;SDS011;61927;50.080;14.418;2023-02-03T06:39:34;2.15;;;1.65;;
73632;SDS011;61927;50.080;14.418;2023-02-03T06:42:00;3.88;;;1.23;;
73632;SDS011;61927;50.080;14.418;2023-02-03T06:44:26;1.33;;;1.23;;
73632;SDS011;61927;50.080;14.418;2023-02-03T06:46:51;1.70;;;1.20;;
73632;SDS011;61927;50.080;14.418;2023-02-03T06:49:17;1.50;;;1.40;;
73632;SDS011;61927;50.080;14.418;2023-02-03T06:51:43;1.88;;;1.75;;
73632;SDS011;61927;50.080;14.418;2023-02-03T06:54:09;1.40;;;1.30;;
73632;SDS011;61927;50.080;14.418;2023-02-03T06:56:36;1.50;;;1.40;;
73632;SDS011;61927;50.080;14.418;2023-02-03T06:59:02;3.67;;;2.15;;
73632;SDS011;61927;50.080;14.418;2023-02-03T07:01:28;7.82;;;2.00;;
73632;SDS011;61927;50.080;14.418;2023-02-03T07:03:54;1.63;;;1.52;;
73632;SDS011;61927;50.080;14.418;2023-02-03T07:06:26;3.00;;;1.65;;
73632;SDS011;61927;50.080;14.418;2023-02-03T07:08:56;2.13;;;1.42;;
73632;SDS011;61927;50.080;14.418;2023-02-03T07:11:22;2.03;;;1.83;;
73632;SDS011;61927;50.080;14.418;2023-02-03T07:13:50;2.80;;;2.20;;
73632;SDS011;61927;50.080;14.418;2023-02-03T07:16:16;2.15;;;1.95;;
73632;SDS011;61927;50.080;14.418;2023-02-03T07:18:42;4.30;;;2.50;;
73632;SDS011;61927;50.080;14.418;2023-02-03T07:21:08;2.55;;;2.35;;
73632;SDS011;61927;50.080;14.418;2023-02-03T07:23:35;6.35;;;2.03;;
73632;SDS011;61927;50.080;14.418;2023-02-03T07:26:01;1.70;;;1.60;;
73632;SDS011;61927;50.080;14.418;2023-02-03T07:28:32;2.30;;;2.10;;
73632;SDS011;61927;50.080;14.418;2023-02-03T07:30:58;2.35;;;2.00;;
73632;SDS011;61927;50.080;14.418;2023-02-03T07:33:24;2.22;;;1.90;;
73632;SDS011;61927;50.080;14.418;2023-02-03T07:35:53;2.33;;;2.13;;
73632;SDS011;61927;50.080;14.418;2023-02-03T07:38:20;2.20;;;2.10;;
73632;SDS011;61927;50.080;14.418;2023-02-03T07:40:49;1.83;;;1.63;;
73632;SDS011;61927;50.080;14.418;2023-02-03T07:43:15;5.78;;;2.25;;
73632;SDS011;61927;50.080;14.418;2023-02-03T07:45:48;3.40;;;2.38;;
73632;SDS011;61927;50.080;14.418;2023-02-03T07:48:14;2.90;;;2.55;;
73632;SDS011;61927;50.080;14.418;2023-02-03T07:50:40;4.65;;;2.70;;
73632;SDS011;61927;50.080;14.418;2023-02-03T07:56:00;4.07;;;2.65;;
73632;SDS011;61927;50.080;14.418;2023-02-03T07:58:27;4.65;;;2.15;;
73632;SDS011;61927;50.080;14.418;2023-02-03T08:00:55;2.20;;;2.10;;
73632;SDS011;61927;50.080;14.418;2023-02-03T08:03:21;3.20;;;2.78;;
73632;SDS011;61927;50.080;14.418;2023-02-03T08:05:47;4.55;;;2.38;;
73632;SDS011;61927;50.080;14.418;2023-02-03T08:08:13;4.10;;;2.00;;
73632;SDS011;61927;50.080;14.418;2023-02-03T08:10:38;3.65;;;1.98;;
73632;SDS011;61927;50.080;14.418;2023-02-03T08:13:10;5.55;;;1.77;;
73632;SDS011;61927;50.080;14.418;2023-02-03T08:15:35;1.90;;;1.80;;
73632;SDS011;61927;50.080;14.418;2023-02-03T08:18:01;1.88;;;1.40;;
73632;SDS011;61927;50.080;14.418;2023-02-03T08:20:27;2.05;;;1.63;;
73632;SDS011;61927;50.080;14.418;2023-02-03T08:22:55;2.20;;;1.90;;
73632;SDS011;61927;50.080;14.418;2023-02-03T08:25:21;2.75;;;2.17;;
73632;SDS011;61927;50.080;14.418;2023-02-03T08:27:49;3.67;;;1.70;;
73632;SDS011;61927;50.080;14.418;2023-02-03T08:30:23;2.28;;;2.08;;
73632;SDS011;61927;50.080;14.418;2023-02-03T08:32:51;7.97;;;4.82;;
73632;SDS011;61927;50.080;14.418;2023-02-03T08:35:19;3.05;;;2.35;;
73632;SDS011;61927;50.080;14.418;2023-02-03T08:37:44;3.83;;;1.70;;
73632;SDS011;61927;50.080;14.418;2023-02-03T08:40:10;2.88;;;1.90;;
73632;SDS011;61927;50.080;14.418;2023-02-03T08:42:39;2.88;;;2.03;;
73632;SDS011;61927;50.080;14.418;2023-02-03T08:45:12;7.20;;;4.00;;
73632;SDS011;61927;50.080;14.418;2023-02-03T08:47:40;2.22;;;2.13;;
73632;SDS011;61927;50.080;14.418;2023-02-03T08:50:06;3.30;;;1.40;;
73632;SDS011;61927;50.080;14.418;2023-02-03T08:52:33;3.20;;;1.70;;
73632;SDS011;61927;50.080;14.418;2023-02-03T08:54:58;2.15;;;1.50;;
73632;SDS011;61927;50.080;14.418;2023-02-03T08:57:24;1.92;;;1.73;;
73632;SDS011;61927;50.080;14.418;2023-02-03T08:59:50;1.77;;;1.67;;
73632;SDS011;61927;50.080;14.418;2023-02-03T09:02:16;2.92;;;1.92;;
73632;SDS011;61927;50.080;14.418;2023-02-03T09:04:44;2.80;;;1.80;;
73632;SDS011;61927;50.080;14.418;2023-02-03T09:07:11;2.28;;;2.08;;
73632;SDS011;61927;50.080;14.418;2023-02-03T09:09:37;1.92;;;1.45;;
73632;SDS011;61927;50.080;14.418;2023-02-03T09:12:04;2.20;;;1.60;;
73632;SDS011;61927;50.080;14.418;2023-02-03T09:14:31;3.65;;;1.90;;
73632;SDS011;61927;50.080;14.418;2023-02-03T09:16:58;4.18;;;1.60;;
73632;SDS011;61927;50.080;14.418;2023-02-03T09:19:25;1.98;;;1.80;;
73632;SDS011;61927;50.080;14.418;2023-02-03T09:21:51;3.20;;;1.55;;
73632;SDS011;61927;50.080;14.418;2023-02-03T09:24:16;3.42;;;2.08;;
73632;SDS011;61927;50.080;14.418;2023-02-03T09:26:43;4.57;;;1.50;;
73632;SDS011;61927;50.080;14.418;2023-02-03T09:29:09;1.60;;;1.50;;
73632;SDS011;61927;50.080;14.418;2023-02-03T09:31:34;1.67;;;1.58;;
73632;SDS011;61927;50.080;14.418;2023-02-03T09:34:00;5.18;;;3.25;;
73632;SDS011;61927;50.080;14.418;2023-02-03T09:36:27;5.97;;;2.22;;
73632;SDS011;61927;50.080;14.418;2023-02-03T09:38:52;2.42;;;1.65;;
73632;SDS011;61927;50.080;14.418;2023-02-03T09:47:09;1.55;;;1.45;;
73632;SDS011;61927;50.080;14.418;2023-02-03T09:52:22;4.00;;;1.55;;
73632;SDS011;61927;50.080;14.418;2023-02-03T09:57:22;4.32;;;2.50;;
73632;SDS011;61927;50.080;14.418;2023-02-03T09:59:50;6.80;;;3.63;;
73632;SDS011;61927;50.080;14.418;2023-02-03T10:02:36;1.98;;;1.73;;
73632;SDS011;61927;50.080;14.418;2023-02-03T10:14:08;13.02;;;4.88;;
73632;SDS011;61927;50.080;14.418;2023-02-03T10:17:01;1.88;;;1.77;;
73632;SDS011;61927;50.080;14.418;2023-02-03T10:19:52;2.47;;;2.28;;
73632;SDS011;61927;50.080;14.418;2023-02-03T10:22:23;4.60;;;2.75;;
73632;SDS011;61927;50.080;14.418;2023-02-03T10:24:55;6.75;;;2.22;;
73632;SDS011;61927;50.080;14.418;2023-02-03T10:27:24;1.23;;;1.13;;
73632;SDS011;61927;50.080;14.418;2023-02-03T10:29:54;1.30;;;1.20;;
73632;SDS011;61927;50.080;14.418;2023-02-03T10:32:23;2.95;;;1.20;;
73632;SDS011;61927;50.080;14.418;2023-02-03T10:34:51;1.30;;;1.02;;
73632;SDS011;61927;50.080;14.418;2023-02-03T10:39:54;1.67;;;1.58;;
73632;SDS011;61927;50.080;14.418;2023-02-03T10:42:21;7.05;;;1.80;;
73632;SDS011;61927;50.080;14.418;2023-02-03T10:45:03;1.63;;;1.52;;
73632;SDS011;61927;50.080;14.418;2023-02-03T10:47:49;2.28;;;1.90;;
73632;SDS011;61927;50.080;14.418;2023-02-03T10:50:37;2.25;;;1.90;;
73632;SDS011;61927;50.080;14.418;2023-02-03T10:53:24;1.83;;;1.73;;
73632;SDS011;61927;50.080;14.418;2023-02-03T10:56:04;3.67;;;2.28;;
73632;SDS011;61927;50.080;14.418;2023-02-03T10:58:33;5.40;;;1.80;;
73632;SDS011;61927;50.080;14.418;2023-02-03T11:01:09;2.55;;;1.73;;
73632;SDS011;61927;50.080;14.418;2023-02-03T11:03:36;1.60;;;1.50;;
73632;SDS011;61927;50.080;14.418;2023-02-03T11:08:30;1.63;;;1.15;;
73632;SDS011;61927;50.080;14.418;2023-02-03T11:11:01;7.50;;;1.30;;
73632;SDS011;61927;50.080;14.418;2023-02-03T11:13:29;0.90;;;0.90;;
73632;SDS011;61927;50.080;14.418;2023-02-03T11:16:17;1.20;;;1.20;;
73632;SDS011;61927;50.080;14.418;2023-02-03T11:18:58;1.00;;;1.00;;
73632;SDS011;61927;50.080;14.418;2023-02-03T11:21:29;0.80;;;0.80;;
73632;SDS011;61927;50.080;14.418;2023-02-03T11:29:25;4.85;;;1.70;;
73632;SDS011;61927;50.080;14.418;2023-02-03T11:31:54;1.20;;;1.10;;
73632;SDS011;61927;50.080;14.418;2023-02-03T11:34:23;1.08;;;0.98;;
73632;SDS011;61927;50.080;14.418;2023-02-03T11:36:52;1.10;;;1.10;;
73632;SDS011;61927;50.080;14.418;2023-02-03T11:39:19;1.38;;;1.10;;
73632;SDS011;61927;50.080;14.418;2023-02-03T11:41:50;1.33;;;1.20;;
73632;SDS011;61927;50.080;14.418;2023-02-03T11:46:43;1.15;;;1.10;;
73632;SDS011;61927;50.080;14.418;2023-02-03T11:58:00;1.40;;;1.10;;
73632;SDS011;61927;50.080;14.418;2023-02-03T12:00:39;1.17;;;1.15;;
73632;SDS011;61927;50.080;14.418;2023-02-03T12:09:24;1.15;;;0.90;;
73632;SDS011;61927;50.080;14.418;2023-02-03T12:25:54;0.90;;;0.90;;
73632;SDS011;61927;50.080;14.418;2023-02-03T12:31:34;1.40;;;0.85;;
73632;SDS011;61927;50.080;14.418;2023-02-03T12:36:56;0.90;;;0.88;;
73632;SDS011;61927;50.080;14.418;2023-02-03T12:39:31;1.08;;;1.00;;
73632;SDS011;61927;50.080;14.418;2023-02-03T12:42:10;0.63;;;0.63;;
73632;SDS011;61927;50.080;14.418;2023-02-03T12:44:44;0.80;;;0.80;;
73632;SDS011;61927;50.080;14.418;2023-02-03T12:47:21;1.30;;;1.23;;
73632;SDS011;61927;50.080;14.418;2023-02-03T12:55:54;2.80;;;0.98;;
73632;SDS011;61927;50.080;14.418;2023-02-03T12:58:36;0.65;;;0.65;;
73632;SDS011;61927;50.080;14.418;2023-02-03T13:12:07;2.15;;;1.10;;
73632;SDS011;61927;50.080;14.418;2023-02-03T13:14:41;2.63;;;2.42;;
73632;SDS011;61927;50.080;14.418;2023-02-03T13:20:22;0.95;;;0.95;;
73632;SDS011;61927;50.080;14.418;2023-02-03T13:22:49;1.08;;;1.08;;
73632;SDS011;61927;50.080;14.418;2023-02-03T13:25:36;1.58;;;1.10;;
73632;SDS011;61927;50.080;14.418;2023-02-03T13:28:08;0.63;;;0.63;;
73632;SDS011;61927;50.080;14.418;2023-02-03T13:34:04;1.15;;;1.00;;
73632;SDS011;61927;50.080;14.418;2023-02-03T13:44:43;1.50;;;1.00;;
73632;SDS011;61927;50.080;14.418;2023-02-03T13:47:15;1.23;;;0.80;;
73632;SDS011;61927;50.080;14.418;2023-02-03T13:52:31;1.95;;;0.88;;
73632;SDS011;61927;50.080;14.418;2023-02-03T13:55:01;0.95;;;0.95;;
73632;SDS011;61927;50.080;14.418;2023-02-03T13:57:32;0.70;;;0.70;;
73632;SDS011;61927;50.080;14.418;2023-02-03T14:03:16;4.55;;;3.03;;
73632;SDS011;61927;50.080;14.418;2023-02-03T14:06:03;1.05;;;0.75;;
73632;SDS011;61927;50.080;14.418;2023-02-03T14:16:37;1.52;;;1.05;;
73632;SDS011;61927;50.080;14.418;2023-02-03T14:19:08;1.20;;;1.10;;
73632;SDS011;61927;50.080;14.418;2023-02-03T14:24:20;3.70;;;0.65;;
73632;SDS011;61927;50.080;14.418;2023-02-03T14:26:48;0.80;;;0.60;;
73632;SDS011;61927;50.080;14.418;2023-02-03T14:29:24;1.35;;;1.25;;
73632;SDS011;61927;50.080;14.418;2023-02-03T14:31:57;6.35;;;0.80;;
73632;SDS011;61927;50.080;14.418;2023-02-03T14:37:24;1.50;;;0.93;;
73632;SDS011;61927;50.080;14.418;2023-02-03T14:42:48;0.52;;;0.52;;
73632;SDS011;61927;50.080;14.418;2023-02-03T14:59:46;2.90;;;0.85;;
73632;SDS011;61927;50.080;14.418;2023-02-03T15:02:18;0.40;;;0.40;;
73632;SDS011;61927;50.080;14.418;2023-02-03T15:04:50;0.43;;;0.40;;
73632;SDS011;61927;50.080;14.418;2023-02-03T15:07:34;1.85;;;0.50;;
73632;SDS011;61927;50.080;14.418;2023-02-03T15:10:16;0.60;;;0.60;;
73632;SDS011;61927;50.080;14.418;2023-02-03T15:12:43;0.98;;;0.65;;
73632;SDS011;61927;50.080;14.418;2023-02-03T15:15:26;0.50;;;0.50;;
73632;SDS011;61927;50.080;14.418;2023-02-03T15:17:55;1.08;;;0.55;;
73632;SDS011;61927;50.080;14.418;2023-02-03T15:20:31;0.40;;;0.40;;
73632;SDS011;61927;50.080;14.418;2023-02-03T15:25:54;1.75;;;0.70;;
73632;SDS011;61927;50.080;14.418;2023-02-03T15:28:38;0.77;;;0.50;;
73632;SDS011;61927;50.080;14.418;2023-02-03T15:31:15;0.93;;;0.70;;
73632;SDS011;61927;50.080;14.418;2023-02-03T15:33:43;0.98;;;0.82;;
73632;SDS011;61927;50.080;14.418;2023-02-03T15:36:34;1.52;;;0.70;;
73632;SDS011;61927;50.080;14.418;2023-02-03T15:41:48;6.88;;;2.08;;
73632;SDS011;61927;50.080;14.418;2023-02-03T15:44:26;1.02;;;0.88;;
73632;SDS011;61927;50.080;14.418;2023-02-03T15:46:57;3.80;;;1.33;;
73632;SDS011;61927;50.080;14.418;2023-02-03T15:49:37;1.40;;;1.02;;
73632;SDS011;61927;50.080;14.418;2023-02-03T15:54:39;8.13;;;1.40;;
73632;SDS011;61927;50.080;14.418;2023-02-03T15:57:22;8.13;;;2.03;;
73632;SDS011;61927;50.080;14.418;2023-02-03T15:59:53;5.60;;;1.48;;
73632;SDS011;61927;50.080;14.418;2023-02-03T16:02:26;5.70;;;1.30;;
73632;SDS011;61927;50.080;14.418;2023-02-03T16:04:55;5.13;;;1.48;;
73632;SDS011;61927;50.080;14.418;2023-02-03T16:07:23;7.43;;;1.52;;
73632;SDS011;61927;50.080;14.418;2023-02-03T16:09:52;7.65;;;1.88;;
73632;SDS011;61927;50.080;14.418;2023-02-03T16:12:26;7.47;;;1.70;;
73632;SDS011;61927;50.080;14.418;2023-02-03T16:14:55;7.97;;;1.92;;
73632;SDS011;61927;50.080;14.418;2023-02-03T16:22:43;6.80;;;1.85;;
73632;SDS011;61927;50.080;14.418;2023-02-03T16:25:28;7.13;;;1.40;;
73632;SDS011;61927;50.080;14.418;2023-02-03T16:27:56;3.33;;;1.45;;
73632;SDS011;61927;50.080;14.418;2023-02-03T16:30:57;4.15;;;1.00;;
73632;SDS011;61927;50.080;14.418;2023-02-03T16:33:45;2.38;;;0.85;;
73632;SDS011;61927;50.080;14.418;2023-02-03T16:36:30;3.55;;;1.25;;
73632;SDS011;61927;50.080;14.418;2023-02-03T16:39:15;2.15;;;1.30;;
73632;SDS011;61927;50.080;14.418;2023-02-03T16:42:04;3.30;;;1.05;;
73632;SDS011;61927;50.080;14.418;2023-02-03T16:44:58;4.85;;;1.15;;
73632;SDS011;61927;50.080;14.418;2023-02-03T16:47:43;7.53;;;1.30;;
73632;SDS011;61927;50.080;14.418;2023-02-03T16:50:31;2.47;;;1.00;;
73632;SDS011;61927;50.080;14.418;2023-02-03T16:53:26;3.95;;;1.15;;
73632;SDS011;61927;50.080;14.418;2023-02-03T16:55:56;1.60;;;1.05;;
73632;SDS011;61927;50.080;14.418;2023-02-03T16:58:36;3.75;;;1.20;;
73632;SDS011;61927;50.080;14.418;2023-02-03T17:01:05;5.95;;;1.65;;
73632;SDS011;61927;50.080;14.418;2023-02-03T17:03:34;6.60;;;1.33;;
73632;SDS011;61927;50.080;14.418;2023-02-03T17:06:01;6.35;;;1.75;;
73632;SDS011;61927;50.080;14.418;2023-02-03T17:08:40;3.95;;;1.90;;
73632;SDS011;61927;50.080;14.418;2023-02-03T17:11:13;4.75;;;1.48;;
73632;SDS011;61927;50.080;14.418;2023-02-03T17:13:40;4.25;;;1.50;;
73632;SDS011;61927;50.080;14.418;2023-02-03T17:16:10;9.48;;;1.70;;
73632;SDS011;61927;50.080;14.418;2023-02-03T17:18:38;5.47;;;2.00;;
73632;SDS011;61927;50.080;14.418;2023-02-03T17:21:07;7.22;;;1.85;;
73632;SDS011;61927;50.080;14.418;2023-02-03T17:23:38;4.75;;;1.73;;
73632;SDS011;61927;50.080;14.418;2023-02-03T17:26:04;5.78;;;2.08;;
73632;SDS011;61927;50.080;14.418;2023-02-03T17:28:31;5.43;;;1.90;;
73632;SDS011;61927;50.080;14.418;2023-02-03T17:31:04;7.78;;;1.92;;
73632;SDS011;61927;50.080;14.418;2023-02-03T17:33:32;9.38;;;2.80;;
73632;SDS011;61927;50.080;14.418;2023-02-03T17:36:05;8.82;;;2.60;;
73632;SDS011;61927;50.080;14.418;2023-02-03T17:41:29;6.47;;;2.00;;
73632;SDS011;61927;50.080;14.418;2023-02-03T17:43:58;11.40;;;2.60;;
73632;SDS011;61927;50.080;14.418;2023-02-03T17:46:28;10.88;;;2.42;;
73632;SDS011;61927;50.080;14.418;2023-02-03T17:48:58;14.43;;;2.63;;
73632;SDS011;61927;50.080;14.418;2023-02-03T17:51:23;5.57;;;2.38;;
73632;SDS011;61927;50.080;14.418;2023-02-03T17:53:58;9.85;;;2.90;;
73632;SDS011;61927;50.080;14.418;2023-02-03T17:56:32;12.88;;;3.47;;
73632;SDS011;61927;50.080;14.418;2023-02-03T17:59:00;14.98;;;2.80;;